Time;durP1;ratioP1;P1;durP2;ratioP2;P2;SDS_P1;SDS_P2;PMS_P1;PMS_P2;Temp;Humidity;BMP_temperature;BMP_pressure;BME280_temperature;BME280_humidity;BME280_pressure;Samples;Min_cycle;Max_cycle;Signal;HPM_P1;HPM_P2
2024/04/08 00:01:08;;;;;;;2.50;0.40;;;;;;;;;;4975986;28;20173;-73
2024/04/08 00:03:34;;;;;;;5.27;0.90;;;;;;;;;;4976316;28;20935;-73
2024/04/08 00:06:00;;;;;;;3.67;1.30;;;;;;;;;;4975940;28;20499;-74
2024/04/08 00:08:26;;;;;;;3.40;0.50;;;;;;;;;;4975852;28;20169;-73
2024/04/08 00:10:52;;;;;;;2.30;0.83;;;;;;;;;;4976054;28;20191;-74
2024/04/08 00:13:18;;;;;;;1.60;0.40;;;;;;;;;;4973991;28;20636;-74
2024/04/08 00:15:44;;;;;;;2.70;0.50;;;;;;;;;;4975776;28;21097;-73
2024/04/08 00:18:10;;;;;;;3.83;0.97;;;;;;;;;;4974573;28;20301;-73
2024/04/08 00:20:36;;;;;;;3.20;0.50;;;;;;;;;;4977433;28;20448;-83
2024/04/08 00:23:02;;;;;;;2.50;0.57;;;;;;;;;;4976152;28;20406;-89
2024/04/08 00:25:28;;;;;;;3.10;0.40;;;;;;;;;;4975696;28;20236;-74
2024/04/08 00:27:54;;;;;;;2.40;0.60;;;;;;;;;;4975414;28;20414;-74
2024/04/08 00:30:20;;;;;;;3.73;0.63;;;;;;;;;;4975443;28;20465;-74
2024/04/08 00:32:47;;;;;;;2.20;0.40;;;;;;;;;;4974829;28;20420;-75
2024/04/08 00:35:13;;;;;;;4.40;0.80;;;;;;;;;;4974965;28;20214;-75
2024/04/08 00:37:39;;;;;;;1.33;0.43;;;;;;;;;;4976163;28;20425;-77
2024/04/08 00:40:05;;;;;;;1.20;0.40;;;;;;;;;;4976704;28;20783;-93
2024/04/08 00:42:32;;;;;;;7.63;0.70;;;;;;;;;;4993598;28;20467;-75
2024/04/08 00:44:58;;;;;;;1.90;0.40;;;;;;;;;;4994097;28;20417;-79
2024/04/08 00:47:24;;;;;;;4.20;0.97;;;;;;;;;;4994046;28;20272;-76
2024/04/08 00:49:50;;;;;;;3.13;0.93;;;;;;;;;;4993641;28;20655;-76
2024/04/08 00:52:16;;;;;;;3.00;0.67;;;;;;;;;;4994048;28;20428;-77
2024/04/08 00:54:42;;;;;;;2.07;0.70;;;;;;;;;;4993799;28;20968;-77
2024/04/08 00:57:10;;;;;;;4.57;0.50;;;;;;;;;;4993918;28;20449;-76
2024/04/08 00:59:36;;;;;;;3.20;0.67;;;;;;;;;;4993818;28;20953;-77
2024/04/08 01:02:04;;;;;;;2.60;1.13;;;;;;;;;;4993844;28;20512;-77
2024/04/08 01:04:31;;;;;;;1.90;0.70;;;;;;;;;;4992160;28;20926;-76
2024/04/08 01:06:56;;;;;;;2.63;0.67;;;;;;;;;;4993799;28;20415;-76
2024/04/08 01:09:22;;;;;;;3.20;0.60;;;;;;;;;;4993723;28;20425;-76
2024/04/08 01:11:48;;;;;;;1.67;0.50;;;;;;;;;;4993683;28;20665;-76
2024/04/08 01:14:14;;;;;;;2.80;0.87;;;;;;;;;;4993678;28;20220;-76
2024/04/08 01:16:40;;;;;;;1.30;0.50;;;;;;;;;;4990920;28;20472;-76
2024/04/08 01:19:23;;;;;;;3.13;0.50;;;;;;;;;;4991922;28;20418;-83
2024/04/08 01:21:49;;;;;;;3.17;0.40;;;;;;;;;;4992433;28;20428;-91
2024/04/08 01:24:15;;;;;;;2.87;0.63;;;;;;;;;;4993996;28;20421;-82
2024/04/08 01:26:41;;;;;;;4.67;1.67;;;;;;;;;;4993863;28;20418;-76
2024/04/08 01:29:07;;;;;;;5.00;0.53;;;;;;;;;;4993978;28;20779;-89
2024/04/08 01:31:33;;;;;;;2.10;0.63;;;;;;;;;;4992537;28;20185;-76
2024/04/08 01:33:59;;;;;;;1.87;0.50;;;;;;;;;;4992388;28;20430;-79
2024/04/08 01:36:25;;;;;;;1.70;0.70;;;;;;;;;;4993625;28;20466;-85
2024/04/08 01:38:51;;;;;;;2.37;0.80;;;;;;;;;;4993286;28;20553;-79
2024/04/08 01:41:17;;;;;;;2.63;0.60;;;;;;;;;;4994819;28;20435;-79
2024/04/08 01:43:42;;;;;;;5.20;0.67;;;;;;;;;;4993997;28;20546;-82
2024/04/08 01:46:09;;;;;;;2.37;0.50;;;;;;;;;;4994128;28;20260;-81
2024/04/08 01:48:34;;;;;;;3.97;1.00;;;;;;;;;;4992768;28;20175;-88
2024/04/08 01:51:00;;;;;;;2.50;0.40;;;;;;;;;;4991647;28;20444;-90
2024/04/08 01:53:27;;;;;;;10.13;0.60;;;;;;;;;;4994548;28;20822;-77
2024/04/08 01:55:53;;;;;;;4.47;1.20;;;;;;;;;;4993672;28;20583;-84
2024/04/08 01:58:18;;;;;;;4.67;0.97;;;;;;;;;;4993485;28;20517;-80
2024/04/08 02:00:44;;;;;;;3.37;0.90;;;;;;;;;;4993825;28;20526;-82
2024/04/08 02:03:11;;;;;;;2.90;0.90;;;;;;;;;;4993596;28;20189;-84
2024/04/08 02:05:37;;;;;;;1.90;0.30;;;;;;;;;;4993034;28;20197;-81
2024/04/08 02:08:03;;;;;;;2.37;0.60;;;;;;;;;;4993390;28;20420;-77
2024/04/08 02:10:28;;;;;;;1.70;0.43;;;;;;;;;;4992953;28;20200;-77
2024/04/08 02:12:54;;;;;;;2.83;0.57;;;;;;;;;;4991731;28;20918;-80
2024/04/08 02:15:20;;;;;;;1.77;0.50;;;;;;;;;;4990345;28;20214;-77
2024/04/08 02:17:46;;;;;;;2.40;0.60;;;;;;;;;;4992975;28;20421;-77
2024/04/08 02:20:12;;;;;;;3.03;1.03;;;;;;;;;;4992528;28;20413;-75
2024/04/08 02:22:38;;;;;;;3.10;1.03;;;;;;;;;;4992766;28;20451;-76
2024/04/08 02:25:04;;;;;;;2.43;0.83;;;;;;;;;;4992824;28;20421;-77
2024/04/08 02:27:30;;;;;;;1.57;0.70;;;;;;;;;;4992768;28;20420;-79
2024/04/08 02:29:57;;;;;;;2.87;0.47;;;;;;;;;;4992754;28;20412;-76
2024/04/08 02:32:23;;;;;;;2.70;0.80;;;;;;;;;;4992736;28;20410;-75
2024/04/08 02:34:48;;;;;;;4.20;0.50;;;;;;;;;;4992102;28;20483;-75
2024/04/08 02:37:14;;;;;;;3.40;0.53;;;;;;;;;;4991507;28;20428;-75
2024/04/08 02:39:40;;;;;;;2.80;0.57;;;;;;;;;;4988894;28;20166;-83
2024/04/08 02:42:06;;;;;;;2.40;1.30;;;;;;;;;;4992772;28;20461;-76
2024/04/08 02:44:33;;;;;;;3.93;0.60;;;;;;;;;;4992703;28;20261;-76
2024/04/08 02:46:59;;;;;;;3.10;1.20;;;;;;;;;;4992396;28;20364;-76
2024/04/08 02:49:25;;;;;;;3.77;1.10;;;;;;;;;;4992264;28;20419;-75
2024/04/08 02:51:51;;;;;;;4.20;1.30;;;;;;;;;;4992540;28;20421;-75
2024/04/08 02:54:17;;;;;;;2.40;0.87;;;;;;;;;;4992593;28;20416;-76
2024/04/08 02:56:43;;;;;;;5.03;1.23;;;;;;;;;;4995771;28;20607;-84
2024/04/08 02:59:09;;;;;;;2.40;0.70;;;;;;;;;;4996177;28;20165;-76
2024/04/08 03:01:35;;;;;;;3.37;0.90;;;;;;;;;;4995927;28;20638;-75
2024/04/08 03:04:02;;;;;;;1.73;0.63;;;;;;;;;;4995695;28;20447;-75
2024/04/08 03:06:29;;;;;;;2.17;0.80;;;;;;;;;;4996000;28;20928;-75
2024/04/08 03:08:55;;;;;;;3.13;1.20;;;;;;;;;;4995935;28;20422;-76
2024/04/08 03:11:21;;;;;;;3.80;1.23;;;;;;;;;;4992096;28;20455;-76
2024/04/08 03:13:48;;;;;;;4.80;0.97;;;;;;;;;;4995910;28;20408;-75
2024/04/08 03:16:14;;;;;;;2.33;0.80;;;;;;;;;;4995862;28;20215;-91
2024/04/08 03:18:40;;;;;;;2.00;0.93;;;;;;;;;;4995436;28;20409;-79
2024/04/08 03:21:06;;;;;;;4.13;1.67;;;;;;;;;;4995698;28;20178;-75
2024/04/08 03:23:32;;;;;;;1.80;0.50;;;;;;;;;;4995780;28;20416;-81
2024/04/08 03:26:05;;;;;;;1.90;0.90;;;;;;;;;;4996965;28;20570;-75
2024/04/08 03:28:31;;;;;;;3.70;0.67;;;;;;;;;;4996776;28;20447;-75
2024/04/08 03:30:57;;;;;;;2.63;1.20;;;;;;;;;;4996284;28;20401;-75
2024/04/08 03:33:24;;;;;;;5.17;1.50;;;;;;;;;;4996270;28;20419;-76
2024/04/08 03:35:50;;;;;;;2.60;1.20;;;;;;;;;;4994654;28;20481;-76
2024/04/08 03:38:16;;;;;;;3.23;1.60;;;;;;;;;;4995460;28;20973;-75
2024/04/08 03:40:43;;;;;;;2.47;1.40;;;;;;;;;;4995520;28;20415;-78
2024/04/08 03:43:09;;;;;;;1.93;1.10;;;;;;;;;;4995334;28;20408;-76
2024/04/08 03:45:35;;;;;;;2.73;1.43;;;;;;;;;;4996026;28;20467;-93
2024/04/08 03:48:01;;;;;;;4.63;2.00;;;;;;;;;;4991757;28;20416;-76
2024/04/08 03:50:27;;;;;;;1.80;1.47;;;;;;;;;;4994916;28;20935;-75
2024/04/08 03:52:53;;;;;;;4.20;1.67;;;;;;;;;;4995219;28;20189;-75
2024/04/08 03:55:22;;;;;;;4.67;1.33;;;;;;;;;;4995068;28;20459;-75
2024/04/08 03:57:48;;;;;;;8.23;0.70;;;;;;;;;;4995020;28;20420;-75
2024/04/08 04:00:14;;;;;;;1.80;1.63;;;;;;;;;;4994985;28;20412;-78
2024/04/08 04:02:40;;;;;;;2.30;1.10;;;;;;;;;;4992365;28;20412;-90
2024/04/08 04:05:07;;;;;;;4.00;2.10;;;;;;;;;;4994583;28;20411;-87
2024/04/08 04:07:33;;;;;;;2.40;1.33;;;;;;;;;;4994147;28;20746;-87
2024/04/08 04:10:04;;;;;;;4.50;2.43;;;;;;;;;;4995299;28;20243;-83
2024/04/08 04:12:33;;;;;;;4.23;1.33;;;;;;;;;;4995411;28;20808;-89
2024/04/08 04:15:03;;;;;;;3.53;1.20;;;;;;;;;;4996329;28;20503;-75
2024/04/08 04:17:28;;;;;;;3.53;1.40;;;;;;;;;;4995445;28;20413;-76
2024/04/08 04:19:54;;;;;;;2.67;1.30;;;;;;;;;;4994583;28;20891;-75
2024/04/08 04:22:20;;;;;;;2.00;1.77;;;;;;;;;;4994657;28;20288;-81
2024/04/08 04:24:46;;;;;;;4.33;1.70;;;;;;;;;;4994481;28;20274;-75
2024/04/08 04:27:12;;;;;;;6.47;1.90;;;;;;;;;;4994467;28;20181;-75
2024/04/08 04:29:38;;;;;;;3.70;1.47;;;;;;;;;;4994475;28;20176;-80
2024/04/08 04:32:04;;;;;;;4.00;1.90;;;;;;;;;;4993244;28;20265;-75
2024/04/08 04:34:30;;;;;;;3.43;1.20;;;;;;;;;;4993965;28;20773;-75
2024/04/08 04:36:56;;;;;;;4.03;1.30;;;;;;;;;;4994148;28;20475;-75
2024/04/08 04:39:22;;;;;;;4.13;1.17;;;;;;;;;;4994158;28;20689;-76
2024/04/08 04:41:51;;;;;;;2.77;1.57;;;;;;;;;;4994205;28;20222;-75
2024/04/08 04:44:18;;;;;;;3.43;1.43;;;;;;;;;;4995828;28;20199;-81
2024/04/08 04:46:44;;;;;;;3.13;1.60;;;;;;;;;;5002438;28;20527;-80
2024/04/08 04:49:09;;;;;;;5.40;1.73;;;;;;;;;;4998890;28;20420;-84
2024/04/08 04:51:35;;;;;;;4.70;3.23;;;;;;;;;;4997866;28;20262;-76
2024/04/08 04:54:01;;;;;;;7.07;4.00;;;;;;;;;;4992691;28;20237;-76
2024/04/08 04:56:27;;;;;;;5.50;2.17;;;;;;;;;;4995277;28;20216;-76
2024/04/08 04:58:53;;;;;;;4.07;2.30;;;;;;;;;;4994926;28;20422;-75
2024/04/08 05:01:19;;;;;;;3.73;2.70;;;;;;;;;;4992864;28;20431;-76
2024/04/08 05:03:45;;;;;;;4.03;2.43;;;;;;;;;;4993885;28;20427;-80
2024/04/08 05:06:12;;;;;;;6.97;4.30;;;;;;;;;;4994161;28;20424;-78
2024/04/08 05:08:38;;;;;;;5.20;2.43;;;;;;;;;;4993952;28;20224;-84
2024/04/08 05:11:04;;;;;;;6.73;2.33;;;;;;;;;;4993773;28;20924;-83
2024/04/08 05:13:30;;;;;;;5.80;2.60;;;;;;;;;;4993714;28;20420;-76
2024/04/08 05:16:00;;;;;;;3.67;2.90;;;;;;;;;;4993582;28;20518;-76
2024/04/08 05:18:26;;;;;;;2.93;1.97;;;;;;;;;;4992955;28;20176;-76
2024/04/08 05:20:52;;;;;;;5.10;2.60;;;;;;;;;;4993589;28;20431;-75
2024/04/08 05:23:21;;;;;;;4.87;2.90;;;;;;;;;;4993355;28;20457;-79
2024/04/08 05:25:48;;;;;;;4.53;1.63;;;;;;;;;;4993504;28;20816;-86
2024/04/08 05:28:14;;;;;;;3.90;3.03;;;;;;;;;;4994115;28;20409;-75
2024/04/08 05:30:41;;;;;;;7.10;3.17;;;;;;;;;;4995181;28;20418;-75
2024/04/08 05:33:07;;;;;;;6.20;3.70;;;;;;;;;;4995264;28;20176;-81
2024/04/08 05:35:33;;;;;;;5.40;3.60;;;;;;;;;;4994156;28;20466;-79
2024/04/08 05:37:59;;;;;;;7.40;2.70;;;;;;;;;;4994506;28;20804;-75
2024/04/08 05:40:25;;;;;;;4.00;2.70;;;;;;;;;;4993736;28;20916;-75
2024/04/08 05:42:51;;;;;;;3.87;2.17;;;;;;;;;;4993693;28;20937;-78
2024/04/08 05:45:17;;;;;;;6.37;3.20;;;;;;;;;;4993533;28;20416;-75
2024/04/08 05:47:42;;;;;;;6.67;2.73;;;;;;;;;;4992312;28;20474;-77
2024/04/08 05:50:09;;;;;;;3.30;2.60;;;;;;;;;;4993151;28;20415;-80
2024/04/08 05:52:35;;;;;;;4.73;2.60;;;;;;;;;;4992359;28;20629;-76
2024/04/08 05:55:01;;;;;;;5.03;3.30;;;;;;;;;;4993496;28;20412;-77
2024/04/08 05:57:27;;;;;;;5.00;3.10;;;;;;;;;;4993370;28;20520;-75
2024/04/08 05:59:53;;;;;;;5.63;3.63;;;;;;;;;;4993406;28;20444;-75
2024/04/08 06:02:19;;;;;;;7.40;3.20;;;;;;;;;;4992855;28;20995;-75
2024/04/08 06:04:45;;;;;;;3.30;3.00;;;;;;;;;;4992561;28;20176;-75
2024/04/08 06:07:12;;;;;;;3.63;2.13;;;;;;;;;;4993034;28;20419;-76
2024/04/08 06:09:38;;;;;;;7.60;3.30;;;;;;;;;;4993007;28;20494;-75
2024/04/08 06:12:04;;;;;;;5.23;1.83;;;;;;;;;;4992914;28;20893;-77
2024/04/08 06:14:29;;;;;;;3.90;2.07;;;;;;;;;;4992744;28;20440;-75
2024/04/08 06:18:30;;;;;;;6.87;1.47;;;;;;;;;;5544265;25;20556;-77
2024/04/08 06:20:56;;;;;;;4.73;1.87;;;;;;;;;;5512167;25;20507;-75
2024/04/08 06:23:23;;;;;;;3.07;1.80;;;;;;;;;;5544932;25;20522;-75
2024/04/08 06:25:57;;;;;;;3.20;1.60;;;;;;;;;;5544872;25;21095;-75
2024/04/08 06:28:23;;;;;;;4.60;1.40;;;;;;;;;;5507166;25;20458;-75
2024/04/08 06:30:49;;;;;;;3.40;0.93;;;;;;;;;;5544882;25;20460;-75
2024/04/08 06:33:14;;;;;;;3.70;1.00;;;;;;;;;;5543684;25;20505;-75
2024/04/08 06:35:44;;;;;;;2.37;1.03;;;;;;;;;;5544669;25;20505;-75
2024/04/08 06:38:10;;;;;;;3.67;0.93;;;;;;;;;;5544599;25;20267;-76
2024/04/08 06:40:36;;;;;;;5.60;1.20;;;;;;;;;;5544763;25;20449;-75
2024/04/08 06:43:02;;;;;;;4.67;1.40;;;;;;;;;;5539723;25;21060;-75
2024/04/08 06:45:28;;;;;;;2.83;0.57;;;;;;;;;;5544709;25;20496;-75
2024/04/08 06:47:54;;;;;;;2.80;1.13;;;;;;;;;;5511635;25;20466;-75
2024/04/08 06:50:20;;;;;;;4.70;1.40;;;;;;;;;;5543860;25;20271;-76
2024/04/08 06:52:46;;;;;;;3.80;0.73;;;;;;;;;;5543748;25;20510;-75
2024/04/08 06:55:12;;;;;;;2.17;1.20;;;;;;;;;;5542371;25;20449;-75
2024/04/08 06:57:38;;;;;;;3.17;1.23;;;;;;;;;;5542846;25;20743;-74
2024/04/08 07:00:04;;;;;;;3.73;0.90;;;;;;;;;;5542895;25;20845;-79
2024/04/08 07:02:30;;;;;;;5.20;0.70;;;;;;;;;;5543092;25;20219;-75
2024/04/08 07:04:56;;;;;;;2.57;0.77;;;;;;;;;;5542575;25;20788;-75
2024/04/08 07:07:22;;;;;;;3.20;0.60;;;;;;;;;;5538227;25;20747;-75
2024/04/08 07:09:48;;;;;;;4.10;0.47;;;;;;;;;;5512264;25;20454;-75
2024/04/08 07:12:14;;;;;;;2.53;0.40;;;;;;;;;;5544840;25;20451;-75
2024/04/08 07:14:40;;;;;;;2.70;0.60;;;;;;;;;;5544962;25;20214;-75
2024/04/08 07:17:06;;;;;;;3.87;0.70;;;;;;;;;;5544675;25;20384;-75
2024/04/08 07:19:32;;;;;;;1.50;0.37;;;;;;;;;;5544619;25;20738;-76
2024/04/08 07:21:58;;;;;;;4.50;0.67;;;;;;;;;;5545368;25;20207;-75
2024/04/08 07:24:24;;;;;;;3.27;0.63;;;;;;;;;;5544665;25;20851;-76
2024/04/08 07:26:50;;;;;;;1.97;0.37;;;;;;;;;;5544655;25;20211;-77
2024/04/08 07:29:16;;;;;;;1.63;0.30;;;;;;;;;;5531414;25;20595;-77
2024/04/08 07:31:42;;;;;;;2.10;0.33;;;;;;;;;;5523965;25;20758;-84
2024/04/08 07:34:08;;;;;;;2.13;0.30;;;;;;;;;;5515902;25;20455;-75
2024/04/08 07:36:34;;;;;;;0.77;0.30;;;;;;;;;;5527512;26;20448;-84
2024/04/08 07:39:00;;;;;;;2.20;0.30;;;;;;;;;;5527234;25;20250;-77
2024/04/08 07:41:26;;;;;;;1.47;0.50;;;;;;;;;;5525433;25;20227;-76
2024/04/08 07:43:52;;;;;;;1.23;0.50;;;;;;;;;;5527434;25;20578;-78
2024/04/08 07:46:18;;;;;;;3.20;0.40;;;;;;;;;;5526998;25;20504;-77
2024/04/08 07:48:45;;;;;;;2.40;0.50;;;;;;;;;;5527329;25;20441;-78
2024/04/08 07:51:11;;;;;;;2.57;0.40;;;;;;;;;;5495524;26;20228;-76
2024/04/08 07:53:37;;;;;;;1.77;0.40;;;;;;;;;;5527959;25;20441;-77
2024/04/08 07:56:03;;;;;;;2.10;0.20;;;;;;;;;;5495102;26;20453;-77
2024/04/08 07:58:30;;;;;;;2.07;0.30;;;;;;;;;;5521263;25;20445;-78
2024/04/08 08:01:03;;;;;;;1.53;0.33;;;;;;;;;;5527945;25;20501;-77
2024/04/08 08:03:29;;;;;;;1.73;0.60;;;;;;;;;;5527310;25;20498;-75
2024/04/08 08:05:55;;;;;;;3.13;0.50;;;;;;;;;;5527565;25;20444;-76
2024/04/08 08:08:21;;;;;;;2.40;0.53;;;;;;;;;;5527597;25;20440;-77
2024/04/08 08:10:47;;;;;;;1.37;0.20;;;;;;;;;;5527899;25;20968;-76
2024/04/08 08:13:13;;;;;;;3.60;0.93;;;;;;;;;;5527768;25;20445;-80
2024/04/08 08:15:39;;;;;;;1.80;0.30;;;;;;;;;;5527864;26;20429;-75
2024/04/08 08:18:05;;;;;;;2.30;0.20;;;;;;;;;;5526992;25;20788;-77
2024/04/08 08:20:33;;;;;;;1.13;0.20;;;;;;;;;;5527855;25;20253;-76
2024/04/08 08:23:00;;;;;;;1.80;0.43;;;;;;;;;;5525925;25;20440;-78
2024/04/08 08:25:26;;;;;;;4.63;0.30;;;;;;;;;;5521931;25;20501;-78
2024/04/08 08:27:52;;;;;;;2.57;0.53;;;;;;;;;;5525007;25;20867;-80
2024/04/08 08:30:18;;;;;;;1.23;0.20;;;;;;;;;;5527497;25;20433;-79
2024/04/08 08:32:44;;;;;;;3.30;0.40;;;;;;;;;;5490093;26;20529;-77
2024/04/08 08:35:11;;;;;;;1.40;0.20;;;;;;;;;;5519929;26;20949;-78
2024/04/08 08:37:37;;;;;;;2.57;0.30;;;;;;;;;;5490755;26;20434;-78
2024/04/08 08:40:03;;;;;;;1.23;0.20;;;;;;;;;;5490720;26;20454;-77
2024/04/08 08:42:29;;;;;;;1.17;0.37;;;;;;;;;;5490967;26;20442;-79
2024/04/08 08:44:57;;;;;;;2.70;0.20;;;;;;;;;;5490811;26;20453;-77
2024/04/08 08:47:23;;;;;;;2.00;0.20;;;;;;;;;;5508803;26;20501;-78
2024/04/08 08:49:53;;;;;;;1.10;0.30;;;;;;;;;;5527149;25;20433;-78
2024/04/08 08:52:19;;;;;;;3.53;0.43;;;;;;;;;;5527333;25;20775;-79
2024/04/08 08:54:45;;;;;;;1.33;0.30;;;;;;;;;;5527275;25;20467;-77
2024/04/08 08:57:11;;;;;;;2.73;0.40;;;;;;;;;;5525604;25;21001;-77
2024/04/08 08:59:38;;;;;;;1.80;0.37;;;;;;;;;;5526609;26;20232;-85
2024/04/08 09:02:05;;;;;;;2.10;0.40;;;;;;;;;;5526323;25;20461;-83
2024/04/08 09:04:31;;;;;;;1.70;0.30;;;;;;;;;;5522396;25;20444;-84
2024/04/08 09:06:57;;;;;;;1.73;0.30;;;;;;;;;;5525544;25;21109;-84
2024/04/08 09:09:23;;;;;;;2.33;0.20;;;;;;;;;;5526413;25;20270;-86
2024/04/08 09:11:49;;;;;;;1.20;0.20;;;;;;;;;;5526353;25;21000;-81
2024/04/08 09:14:15;;;;;;;2.83;0.33;;;;;;;;;;5525892;25;20557;-84
2024/04/08 09:16:42;;;;;;;1.33;0.23;;;;;;;;;;5525673;25;20476;-81
2024/04/08 09:19:09;;;;;;;3.97;0.30;;;;;;;;;;5524785;25;20448;-81
2024/04/08 09:21:35;;;;;;;3.10;0.63;;;;;;;;;;5493490;25;20881;-86
2024/04/08 09:24:02;;;;;;;1.73;0.20;;;;;;;;;;5493523;25;21004;-86
2024/04/08 09:26:28;;;;;;;1.73;0.67;;;;;;;;;;5521942;25;20464;-78
2024/04/08 09:28:54;;;;;;;1.57;0.33;;;;;;;;;;5527050;25;20887;-77
2024/04/08 09:31:20;;;;;;;2.83;0.50;;;;;;;;;;5526901;25;20444;-77
2024/04/08 09:33:46;;;;;;;3.20;0.33;;;;;;;;;;5525837;25;20255;-76
2024/04/08 09:36:12;;;;;;;1.63;0.37;;;;;;;;;;5524316;25;20452;-79
2024/04/08 09:38:39;;;;;;;1.63;0.30;;;;;;;;;;5523187;25;20456;-77
2024/04/08 09:41:06;;;;;;;2.03;0.47;;;;;;;;;;5526044;25;20461;-77
2024/04/08 09:43:32;;;;;;;4.13;0.50;;;;;;;;;;5525048;25;20828;-77
2024/04/08 09:46:00;;;;;;;2.10;0.50;;;;;;;;;;5524405;25;20536;-77
2024/04/08 09:48:26;;;;;;;3.00;0.57;;;;;;;;;;5525544;25;20692;-77
2024/04/08 09:50:54;;;;;;;2.40;0.20;;;;;;;;;;5525791;25;21012;-76
2024/04/08 09:53:20;;;;;;;3.23;0.83;;;;;;;;;;5526585;26;20504;-76
2024/04/08 09:55:51;;;;;;;2.27;0.30;;;;;;;;;;5526537;26;20566;-76
2024/04/08 09:58:18;;;;;;;3.73;0.70;;;;;;;;;;5526588;25;20951;-76
2024/04/08 10:00:45;;;;;;;1.50;0.60;;;;;;;;;;5526750;26;20433;-77
2024/04/08 10:03:15;;;;;;;4.23;0.50;;;;;;;;;;5525987;25;20501;-78
2024/04/08 10:05:41;;;;;;;1.23;0.37;;;;;;;;;;5526615;25;20437;-77
2024/04/08 10:08:07;;;;;;;2.47;0.60;;;;;;;;;;5526393;25;20558;-77
2024/04/08 10:10:34;;;;;;;2.80;0.73;;;;;;;;;;5526401;25;20834;-76
2024/04/08 10:13:00;;;;;;;3.23;0.80;;;;;;;;;;5526255;25;20500;-76
2024/04/08 10:15:31;;;;;;;1.20;0.30;;;;;;;;;;5525855;25;20441;-77
2024/04/08 10:17:57;;;;;;;2.60;0.60;;;;;;;;;;5525177;25;20232;-76
2024/04/08 10:20:23;;;;;;;2.83;0.50;;;;;;;;;;5526158;25;20437;-77
2024/04/08 10:22:49;;;;;;;2.43;0.43;;;;;;;;;;5526158;25;20250;-77
2024/04/08 10:25:34;;;;;;;1.93;0.73;;;;;;;;;;5525963;25;20259;-77
2024/04/08 10:28:03;;;;;;;3.20;0.30;;;;;;;;;;5526276;25;20514;-78
2024/04/08 10:30:31;;;;;;;3.27;0.40;;;;;;;;;;5525864;25;20432;-80
2024/04/08 10:32:57;;;;;;;6.10;0.70;;;;;;;;;;5492310;26;20453;-79
2024/04/08 10:35:23;;;;;;;1.90;0.40;;;;;;;;;;5493748;26;20532;-78
2024/04/08 10:37:50;;;;;;;3.03;0.50;;;;;;;;;;5463015;26;20227;-78
2024/04/08 10:40:17;;;;;;;1.53;0.30;;;;;;;;;;5525715;26;20220;-78
2024/04/08 10:42:43;;;;;;;4.60;0.40;;;;;;;;;;5525207;26;20960;-79
2024/04/08 10:45:09;;;;;;;4.10;0.40;;;;;;;;;;5520730;25;20503;-79
2024/04/08 10:47:34;;;;;;;2.47;0.40;;;;;;;;;;5525227;25;20212;-77
2024/04/08 10:50:00;;;;;;;1.80;0.37;;;;;;;;;;5525615;25;20242;-79
2024/04/08 10:52:32;;;;;;;3.43;0.70;;;;;;;;;;5525995;25;20250;-79
2024/04/08 10:54:58;;;;;;;2.83;0.53;;;;;;;;;;5493852;25;20710;-89
2024/04/08 10:57:26;;;;;;;3.53;0.30;;;;;;;;;;5526038;25;20436;-87
2024/04/08 10:59:52;;;;;;;3.50;0.43;;;;;;;;;;5494019;25;20233;-85
2024/04/08 11:02:18;;;;;;;2.87;0.90;;;;;;;;;;5525165;25;20428;-85
2024/04/08 11:04:45;;;;;;;2.33;0.60;;;;;;;;;;5528256;25;20220;-82
2024/04/08 11:07:11;;;;;;;4.20;0.50;;;;;;;;;;5529250;25;20787;-85
2024/04/08 11:09:37;;;;;;;3.17;0.40;;;;;;;;;;5528197;25;20488;-81
2024/04/08 11:12:06;;;;;;;4.07;0.47;;;;;;;;;;5528504;25;20507;-80
2024/04/08 11:14:32;;;;;;;3.33;0.93;;;;;;;;;;5529069;26;20432;-79
2024/04/08 11:17:08;;;;;;;1.90;0.47;;;;;;;;;;5528682;25;20542;-87
2024/04/08 11:19:37;;;;;;;3.77;0.60;;;;;;;;;;5528716;25;20474;-87
2024/04/08 11:22:02;;;;;;;2.73;0.50;;;;;;;;;;5528998;25;20952;-82
2024/04/08 11:24:30;;;;;;;1.33;0.30;;;;;;;;;;5528781;25;20476;-87
2024/04/08 11:26:56;;;;;;;3.20;0.60;;;;;;;;;;5496187;25;20515;-87
2024/04/08 11:29:22;;;;;;;1.87;0.47;;;;;;;;;;5528647;25;20440;-88
2024/04/08 11:31:48;;;;;;;1.10;0.40;;;;;;;;;;5528463;25;20236;-80
2024/04/08 11:34:14;;;;;;;2.37;0.70;;;;;;;;;;5528386;25;20498;-81
2024/04/08 11:36:39;;;;;;;2.23;1.10;;;;;;;;;;5528694;25;20250;-81
2024/04/08 11:39:05;;;;;;;2.87;0.77;;;;;;;;;;5528033;25;20608;-83
2024/04/08 11:41:31;;;;;;;2.47;0.47;;;;;;;;;;5528632;25;20243;-80
2024/04/08 11:43:57;;;;;;;2.40;0.40;;;;;;;;;;5528542;25;20855;-80
2024/04/08 11:46:24;;;;;;;1.53;0.40;;;;;;;;;;5528411;25;20220;-80
2024/04/08 11:48:49;;;;;;;3.83;0.63;;;;;;;;;;5528049;25;20258;-79
2024/04/08 11:51:15;;;;;;;1.80;0.50;;;;;;;;;;5528408;25;20441;-79
2024/04/08 11:53:41;;;;;;;3.40;0.73;;;;;;;;;;5528327;25;20212;-79
2024/04/08 11:56:08;;;;;;;1.90;0.40;;;;;;;;;;5528433;25;20263;-78
2024/04/08 11:58:34;;;;;;;4.27;0.63;;;;;;;;;;5528386;26;20258;-79
2024/04/08 12:01:02;;;;;;;4.47;0.70;;;;;;;;;;5495721;25;20960;-79
2024/04/08 12:03:28;;;;;;;2.30;0.60;;;;;;;;;;5527979;26;20827;-78
2024/04/08 12:05:54;;;;;;;3.77;0.83;;;;;;;;;;5528177;26;20457;-81
2024/04/08 12:08:20;;;;;;;2.87;0.63;;;;;;;;;;5528004;25;20220;-81
2024/04/08 12:10:46;;;;;;;2.80;0.57;;;;;;;;;;5495427;26;20763;-78
2024/04/08 12:13:18;;;;;;;3.03;0.47;;;;;;;;;;5490991;26;20442;-78
2024/04/08 12:15:44;;;;;;;3.77;0.77;;;;;;;;;;5490404;26;20217;-78
2024/04/08 12:18:10;;;;;;;2.03;0.77;;;;;;;;;;5490831;26;20981;-79
2024/04/08 12:20:36;;;;;;;4.17;0.70;;;;;;;;;;5491174;26;20494;-79
2024/04/08 12:23:02;;;;;;;2.67;0.40;;;;;;;;;;5502315;25;20228;-83
2024/04/08 12:25:28;;;;;;;1.67;0.30;;;;;;;;;;5527532;25;20271;-85
2024/04/08 12:27:54;;;;;;;2.10;0.60;;;;;;;;;;5527952;25;20448;-79
2024/04/08 12:30:20;;;;;;;2.10;0.60;;;;;;;;;;5527999;25;20433;-79
2024/04/08 12:32:46;;;;;;;2.20;0.37;;;;;;;;;;5527569;25;20552;-79
2024/04/08 12:35:12;;;;;;;1.87;0.50;;;;;;;;;;5527742;25;20231;-78
2024/04/08 12:37:38;;;;;;;4.13;0.70;;;;;;;;;;5527713;25;20215;-79
2024/04/08 12:40:04;;;;;;;2.00;0.53;;;;;;;;;;5528002;25;20212;-78
2024/04/08 12:42:30;;;;;;;4.57;0.70;;;;;;;;;;5527832;25;20840;-78
2024/04/08 12:44:56;;;;;;;3.53;0.53;;;;;;;;;;5527682;25;20575;-77
2024/04/08 12:47:22;;;;;;;0.97;0.37;;;;;;;;;;5526387;26;20231;-79
2024/04/08 12:49:48;;;;;;;3.70;0.83;;;;;;;;;;5527478;25;20216;-79
2024/04/08 12:52:14;;;;;;;3.33;1.17;;;;;;;;;;5526702;25;20503;-78
2024/04/08 12:54:40;;;;;;;3.10;0.50;;;;;;;;;;5527410;25;20573;-78
2024/04/08 12:57:06;;;;;;;3.27;0.80;;;;;;;;;;5527366;25;20324;-78
2024/04/08 12:59:33;;;;;;;4.53;0.83;;;;;;;;;;5526942;25;20223;-78
2024/04/08 13:01:59;;;;;;;2.07;0.40;;;;;;;;;;5492254;26;21027;-80
2024/04/08 13:04:24;;;;;;;4.83;0.80;;;;;;;;;;5527143;25;20437;-81
2024/04/08 13:06:50;;;;;;;4.20;0.90;;;;;;;;;;5494543;26;20216;-79
2024/04/08 13:09:16;;;;;;;3.63;1.23;;;;;;;;;;5527297;25;20220;-84
2024/04/08 13:11:42;;;;;;;2.33;0.40;;;;;;;;;;5527060;25;20255;-78
2024/04/08 13:14:08;;;;;;;2.30;0.63;;;;;;;;;;5527205;25;20250;-77
2024/04/08 13:16:34;;;;;;;3.60;0.93;;;;;;;;;;5527240;25;20216;-78
2024/04/08 13:19:00;;;;;;;3.33;0.23;;;;;;;;;;5526907;25;20216;-77
2024/04/08 13:21:26;;;;;;;3.80;1.10;;;;;;;;;;5527155;25;20211;-80
2024/04/08 13:23:52;;;;;;;2.30;0.50;;;;;;;;;;5527325;25;20518;-77
2024/04/08 13:26:18;;;;;;;4.10;0.80;;;;;;;;;;5525941;26;20437;-81
2024/04/08 13:28:44;;;;;;;3.43;0.93;;;;;;;;;;5524573;25;20464;-86
2024/04/08 13:31:10;;;;;;;3.93;1.00;;;;;;;;;;5527342;25;20227;-86
2024/04/08 13:33:36;;;;;;;2.73;0.73;;;;;;;;;;5526684;25;20497;-83
2024/04/08 13:36:09;;;;;;;4.07;1.00;;;;;;;;;;5526816;25;20258;-84
2024/04/08 13:38:35;;;;;;;5.93;0.70;;;;;;;;;;5526878;25;20985;-80
2024/04/08 13:41:01;;;;;;;6.60;0.60;;;;;;;;;;5526994;25;20691;-84
2024/04/08 13:43:27;;;;;;;4.73;1.30;;;;;;;;;;5526728;25;20220;-83
2024/04/08 13:45:53;;;;;;;6.17;1.23;;;;;;;;;;5526090;25;20560;-77
2024/04/08 13:48:18;;;;;;;4.13;1.20;;;;;;;;;;5525927;25;20245;-78
2024/04/08 13:50:44;;;;;;;5.30;1.50;;;;;;;;;;5526636;25;20240;-78
2024/04/08 13:53:10;;;;;;;3.87;0.90;;;;;;;;;;5526459;25;20216;-77
2024/04/08 13:55:36;;;;;;;7.50;1.13;;;;;;;;;;5526552;26;20246;-82
2024/04/08 13:58:02;;;;;;;3.47;1.20;;;;;;;;;;5526458;25;20242;-86
2024/04/08 14:00:28;;;;;;;6.47;1.40;;;;;;;;;;5526270;25;20544;-84
2024/04/08 14:02:54;;;;;;;6.87;1.00;;;;;;;;;;5526117;25;20508;-78
2024/04/08 14:05:20;;;;;;;3.67;0.90;;;;;;;;;;5525968;25;20988;-77
2024/04/08 14:07:46;;;;;;;2.87;0.70;;;;;;;;;;5525583;25;20267;-77
2024/04/08 14:10:12;;;;;;;6.07;1.57;;;;;;;;;;5526333;25;20579;-81
2024/04/08 14:12:38;;;;;;;4.67;1.60;;;;;;;;;;5526017;26;20495;-80
2024/04/08 14:15:04;;;;;;;5.00;1.43;;;;;;;;;;5526152;25;20366;-79
2024/04/08 14:17:30;;;;;;;6.73;1.47;;;;;;;;;;5525672;25;20464;-77
2024/04/08 14:19:56;;;;;;;4.70;1.53;;;;;;;;;;5526219;25;21016;-79
2024/04/08 14:22:22;;;;;;;5.03;1.43;;;;;;;;;;5526247;26;20314;-85
2024/04/08 14:24:48;;;;;;;9.37;1.70;;;;;;;;;;5526266;25;20440;-78
2024/04/08 14:27:13;;;;;;;5.07;0.90;;;;;;;;;;5493447;26;20216;-78
2024/04/08 14:29:39;;;;;;;4.33;2.00;;;;;;;;;;5525970;25;20212;-79
2024/04/08 14:32:05;;;;;;;5.67;1.20;;;;;;;;;;5525440;25;20228;-78
2024/04/08 14:34:32;;;;;;;7.10;1.30;;;;;;;;;;5525513;25;20269;-78
2024/04/08 14:36:57;;;;;;;8.03;2.37;;;;;;;;;;5526415;25;20428;-78
2024/04/08 14:39:23;;;;;;;4.13;0.93;;;;;;;;;;5497066;26;20493;-82